sensor_id;sensor_type;location;lat;lon;timestamp;P1;durP1;ratioP1;P2;durP2;ratioP2
41043;SDS011;51680;49.806;18.774;2023-09-19T00:02:54;16.63;;;8.68;;
41043;SDS011;51680;49.806;18.774;2023-09-19T00:05:58;16.40;;;8.10;;
41043;SDS011;51680;49.806;18.774;2023-09-19T00:09:00;11.90;;;7.72;;
41043;SDS011;51680;49.806;18.774;2023-09-19T00:12:05;10.65;;;7.82;;
41043;SDS011;51680;49.806;18.774;2023-09-19T00:15:09;10.68;;;7.53;;
41043;SDS011;51680;49.806;18.774;2023-09-19T00:18:11;9.65;;;7.60;;
41043;SDS011;51680;49.806;18.774;2023-09-19T00:21:15;13.55;;;8.35;;
41043;SDS011;51680;49.806;18.774;2023-09-19T00:24:17;14.75;;;8.20;;
41043;SDS011;51680;49.806;18.774;2023-09-19T00:27:20;12.15;;;8.52;;
41043;SDS011;51680;49.806;18.774;2023-09-19T00:30:22;10.65;;;8.23;;
41043;SDS011;51680;49.806;18.774;2023-09-19T00:33:24;10.90;;;7.35;;
41043;SDS011;51680;49.806;18.774;2023-09-19T00:36:26;13.02;;;7.93;;
41043;SDS011;51680;49.806;18.774;2023-09-19T00:39:29;10.75;;;7.93;;
41043;SDS011;51680;49.806;18.774;2023-09-19T00:42:33;14.50;;;8.38;;
41043;SDS011;51680;49.806;18.774;2023-09-19T00:45:35;16.67;;;7.82;;
41043;SDS011;51680;49.806;18.774;2023-09-19T00:48:39;12.10;;;7.57;;
41043;SDS011;51680;49.806;18.774;2023-09-19T00:51:43;12.70;;;8.13;;
41043;SDS011;51680;49.806;18.774;2023-09-19T00:54:47;11.45;;;7.78;;
41043;SDS011;51680;49.806;18.774;2023-09-19T00:57:50;15.05;;;7.88;;
41043;SDS011;51680;49.806;18.774;2023-09-19T01:03:54;11.80;;;7.97;;
41043;SDS011;51680;49.806;18.774;2023-09-19T01:06:56;11.93;;;8.25;;
41043;SDS011;51680;49.806;18.774;2023-09-19T01:09:59;12.23;;;7.97;;
41043;SDS011;51680;49.806;18.774;2023-09-19T01:13:05;14.20;;;8.15;;
41043;SDS011;51680;49.806;18.774;2023-09-19T01:16:17;13.23;;;8.27;;
41043;SDS011;51680;49.806;18.774;2023-09-19T01:19:38;11.88;;;8.07;;
41043;SDS011;51680;49.806;18.774;2023-09-19T01:23:05;9.82;;;7.78;;
41043;SDS011;51680;49.806;18.774;2023-09-19T01:26:18;10.10;;;7.63;;
41043;SDS011;51680;49.806;18.774;2023-09-19T01:29:34;15.73;;;7.47;;
41043;SDS011;51680;49.806;18.774;2023-09-19T01:32:41;10.88;;;7.47;;
41043;SDS011;51680;49.806;18.774;2023-09-19T01:38:45;12.98;;;7.80;;
41043;SDS011;51680;49.806;18.774;2023-09-19T01:41:54;11.35;;;7.93;;
41043;SDS011;51680;49.806;18.774;2023-09-19T01:45:03;13.93;;;7.32;;
41043;SDS011;51680;49.806;18.774;2023-09-19T01:48:16;16.23;;;7.32;;
41043;SDS011;51680;49.806;18.774;2023-09-19T01:51:22;12.18;;;7.55;;
41043;SDS011;51680;49.806;18.774;2023-09-19T01:54:34;10.77;;;7.53;;
41043;SDS011;51680;49.806;18.774;2023-09-19T01:57:42;13.50;;;7.57;;
41043;SDS011;51680;49.806;18.774;2023-09-19T02:00:53;15.13;;;7.43;;
41043;SDS011;51680;49.806;18.774;2023-09-19T02:03:58;10.60;;;7.25;;
41043;SDS011;51680;49.806;18.774;2023-09-19T02:07:00;16.00;;;7.25;;
41043;SDS011;51680;49.806;18.774;2023-09-19T02:10:03;9.50;;;7.60;;
41043;SDS011;51680;49.806;18.774;2023-09-19T02:13:06;13.70;;;7.60;;
41043;SDS011;51680;49.806;18.774;2023-09-19T02:16:07;10.13;;;7.78;;
41043;SDS011;51680;49.806;18.774;2023-09-19T02:19:12;11.25;;;7.63;;
41043;SDS011;51680;49.806;18.774;2023-09-19T02:22:14;14.97;;;8.30;;
41043;SDS011;51680;49.806;18.774;2023-09-19T02:25:16;9.27;;;7.05;;
41043;SDS011;51680;49.806;18.774;2023-09-19T02:28:19;13.80;;;8.18;;
41043;SDS011;51680;49.806;18.774;2023-09-19T02:31:20;11.07;;;7.80;;
41043;SDS011;51680;49.806;18.774;2023-09-19T02:34:24;14.45;;;8.38;;
41043;SDS011;51680;49.806;18.774;2023-09-19T02:37:25;11.40;;;8.02;;
41043;SDS011;51680;49.806;18.774;2023-09-19T02:40:27;11.68;;;7.80;;
41043;SDS011;51680;49.806;18.774;2023-09-19T02:43:30;12.27;;;8.27;;
41043;SDS011;51680;49.806;18.774;2023-09-19T02:46:31;13.52;;;7.85;;
41043;SDS011;51680;49.806;18.774;2023-09-19T02:49:34;13.65;;;8.35;;
41043;SDS011;51680;49.806;18.774;2023-09-19T02:52:36;15.40;;;8.87;;
41043;SDS011;51680;49.806;18.774;2023-09-19T02:55:38;15.05;;;8.80;;
41043;SDS011;51680;49.806;18.774;2023-09-19T02:58:40;14.20;;;8.25;;
41043;SDS011;51680;49.806;18.774;2023-09-19T03:01:43;13.07;;;8.57;;
41043;SDS011;51680;49.806;18.774;2023-09-19T03:04:49;12.48;;;8.30;;
41043;SDS011;51680;49.806;18.774;2023-09-19T03:07:51;12.88;;;8.07;;
41043;SDS011;51680;49.806;18.774;2023-09-19T03:10:54;14.67;;;9.20;;
41043;SDS011;51680;49.806;18.774;2023-09-19T03:13:56;12.60;;;8.38;;
41043;SDS011;51680;49.806;18.774;2023-09-19T03:16:59;15.10;;;8.18;;
41043;SDS011;51680;49.806;18.774;2023-09-19T03:20:02;13.30;;;9.05;;
41043;SDS011;51680;49.806;18.774;2023-09-19T03:23:08;16.45;;;8.80;;
41043;SDS011;51680;49.806;18.774;2023-09-19T03:26:10;21.90;;;9.60;;
41043;SDS011;51680;49.806;18.774;2023-09-19T03:29:15;20.15;;;9.10;;
41043;SDS011;51680;49.806;18.774;2023-09-19T03:32:18;14.25;;;9.75;;
41043;SDS011;51680;49.806;18.774;2023-09-19T03:35:22;18.67;;;10.13;;
41043;SDS011;51680;49.806;18.774;2023-09-19T03:38:24;18.90;;;9.73;;
41043;SDS011;51680;49.806;18.774;2023-09-19T03:41:44;15.30;;;9.10;;
41043;SDS011;51680;49.806;18.774;2023-09-19T03:44:46;17.65;;;9.75;;
41043;SDS011;51680;49.806;18.774;2023-09-19T03:48:08;15.85;;;8.85;;
41043;SDS011;51680;49.806;18.774;2023-09-19T03:51:11;11.68;;;8.98;;
41043;SDS011;51680;49.806;18.774;2023-09-19T03:54:13;14.23;;;9.15;;
41043;SDS011;51680;49.806;18.774;2023-09-19T03:57:14;18.55;;;8.77;;
41043;SDS011;51680;49.806;18.774;2023-09-19T04:00:20;19.77;;;9.10;;
41043;SDS011;51680;49.806;18.774;2023-09-19T04:03:24;14.43;;;8.82;;
41043;SDS011;51680;49.806;18.774;2023-09-19T04:06:36;14.02;;;8.43;;
41043;SDS011;51680;49.806;18.774;2023-09-19T04:09:38;15.88;;;8.50;;
41043;SDS011;51680;49.806;18.774;2023-09-19T04:12:40;16.67;;;9.35;;
41043;SDS011;51680;49.806;18.774;2023-09-19T04:15:41;16.35;;;9.23;;
41043;SDS011;51680;49.806;18.774;2023-09-19T04:18:43;12.85;;;9.18;;
41043;SDS011;51680;49.806;18.774;2023-09-19T04:21:46;17.00;;;9.40;;
41043;SDS011;51680;49.806;18.774;2023-09-19T04:24:48;15.77;;;9.10;;
41043;SDS011;51680;49.806;18.774;2023-09-19T04:27:49;13.85;;;9.32;;
41043;SDS011;51680;49.806;18.774;2023-09-19T04:30:51;15.18;;;8.93;;
41043;SDS011;51680;49.806;18.774;2023-09-19T04:33:53;14.73;;;8.80;;
41043;SDS011;51680;49.806;18.774;2023-09-19T04:36:56;16.10;;;9.02;;
41043;SDS011;51680;49.806;18.774;2023-09-19T04:39:58;12.88;;;8.80;;
41043;SDS011;51680;49.806;18.774;2023-09-19T04:43:00;16.08;;;9.18;;
41043;SDS011;51680;49.806;18.774;2023-09-19T04:46:03;15.43;;;8.93;;
41043;SDS011;51680;49.806;18.774;2023-09-19T04:49:06;15.27;;;8.55;;
41043;SDS011;51680;49.806;18.774;2023-09-19T04:52:09;12.55;;;9.68;;
41043;SDS011;51680;49.806;18.774;2023-09-19T04:55:11;16.80;;;9.55;;
41043;SDS011;51680;49.806;18.774;2023-09-19T04:58:16;15.50;;;9.52;;
41043;SDS011;51680;49.806;18.774;2023-09-19T05:01:18;15.20;;;8.98;;
41043;SDS011;51680;49.806;18.774;2023-09-19T05:04:22;15.32;;;9.82;;
41043;SDS011;51680;49.806;18.774;2023-09-19T05:07:25;17.30;;;9.45;;
41043;SDS011;51680;49.806;18.774;2023-09-19T05:10:27;16.77;;;9.48;;
41043;SDS011;51680;49.806;18.774;2023-09-19T05:13:29;15.70;;;9.50;;
41043;SDS011;51680;49.806;18.774;2023-09-19T05:16:31;17.73;;;9.63;;
41043;SDS011;51680;49.806;18.774;2023-09-19T05:19:33;18.73;;;9.68;;
41043;SDS011;51680;49.806;18.774;2023-09-19T05:22:36;17.05;;;9.68;;
41043;SDS011;51680;49.806;18.774;2023-09-19T05:25:40;13.52;;;8.93;;
41043;SDS011;51680;49.806;18.774;2023-09-19T05:28:43;20.38;;;9.63;;
41043;SDS011;51680;49.806;18.774;2023-09-19T05:31:45;12.75;;;9.05;;
41043;SDS011;51680;49.806;18.774;2023-09-19T05:34:46;15.77;;;10.38;;
41043;SDS011;51680;49.806;18.774;2023-09-19T05:37:51;17.00;;;10.73;;
41043;SDS011;51680;49.806;18.774;2023-09-19T05:40:53;14.10;;;10.30;;
41043;SDS011;51680;49.806;18.774;2023-09-19T05:43:54;14.73;;;10.57;;
41043;SDS011;51680;49.806;18.774;2023-09-19T05:46:56;17.85;;;10.90;;
41043;SDS011;51680;49.806;18.774;2023-09-19T05:49:58;14.93;;;10.02;;
41043;SDS011;51680;49.806;18.774;2023-09-19T05:53:02;14.20;;;9.50;;
41043;SDS011;51680;49.806;18.774;2023-09-19T05:56:05;11.20;;;7.40;;
41043;SDS011;51680;49.806;18.774;2023-09-19T05:59:06;12.82;;;5.30;;
41043;SDS011;51680;49.806;18.774;2023-09-19T06:02:08;6.63;;;4.13;;
41043;SDS011;51680;49.806;18.774;2023-09-19T06:05:11;6.95;;;3.78;;
41043;SDS011;51680;49.806;18.774;2023-09-19T06:08:14;7.38;;;3.70;;
41043;SDS011;51680;49.806;18.774;2023-09-19T06:11:16;4.65;;;3.55;;
41043;SDS011;51680;49.806;18.774;2023-09-19T06:14:20;5.78;;;3.72;;
41043;SDS011;51680;49.806;18.774;2023-09-19T06:20:28;12.60;;;3.58;;
41043;SDS011;51680;49.806;18.774;2023-09-19T06:23:31;4.63;;;3.05;;
41043;SDS011;51680;49.806;18.774;2023-09-19T06:26:52;5.05;;;2.40;;
41043;SDS011;51680;49.806;18.774;2023-09-19T06:29:55;5.13;;;2.53;;
41043;SDS011;51680;49.806;18.774;2023-09-19T06:32:56;4.78;;;2.30;;
41043;SDS011;51680;49.806;18.774;2023-09-19T06:35:58;5.50;;;3.22;;
41043;SDS011;51680;49.806;18.774;2023-09-19T06:39:02;5.95;;;3.13;;
41043;SDS011;51680;49.806;18.774;2023-09-19T06:42:04;7.68;;;2.97;;
41043;SDS011;51680;49.806;18.774;2023-09-19T06:45:06;6.65;;;2.70;;
41043;SDS011;51680;49.806;18.774;2023-09-19T06:48:11;7.18;;;2.88;;
41043;SDS011;51680;49.806;18.774;2023-09-19T06:51:31;4.05;;;2.55;;
41043;SDS011;51680;49.806;18.774;2023-09-19T06:54:36;4.63;;;2.33;;
41043;SDS011;51680;49.806;18.774;2023-09-19T06:57:37;4.47;;;2.40;;
41043;SDS011;51680;49.806;18.774;2023-09-19T07:00:40;5.30;;;2.40;;
41043;SDS011;51680;49.806;18.774;2023-09-19T07:03:42;4.90;;;2.10;;
41043;SDS011;51680;49.806;18.774;2023-09-19T07:06:48;5.22;;;2.63;;
41043;SDS011;51680;49.806;18.774;2023-09-19T07:09:52;5.40;;;2.85;;
41043;SDS011;51680;49.806;18.774;2023-09-19T07:12:55;8.20;;;3.27;;
41043;SDS011;51680;49.806;18.774;2023-09-19T07:15:58;7.82;;;4.40;;
41043;SDS011;51680;49.806;18.774;2023-09-19T07:19:00;9.13;;;4.43;;
41043;SDS011;51680;49.806;18.774;2023-09-19T07:22:20;7.53;;;4.57;;
41043;SDS011;51680;49.806;18.774;2023-09-19T07:25:25;12.13;;;5.18;;
41043;SDS011;51680;49.806;18.774;2023-09-19T07:28:29;9.90;;;5.17;;
41043;SDS011;51680;49.806;18.774;2023-09-19T07:31:30;6.88;;;4.55;;
41043;SDS011;51680;49.806;18.774;2023-09-19T07:34:32;11.05;;;4.20;;
41043;SDS011;51680;49.806;18.774;2023-09-19T07:37:34;7.75;;;3.75;;
41043;SDS011;51680;49.806;18.774;2023-09-19T07:40:37;5.18;;;3.53;;
41043;SDS011;51680;49.806;18.774;2023-09-19T07:43:39;6.85;;;3.10;;
41043;SDS011;51680;49.806;18.774;2023-09-19T07:46:41;5.18;;;2.72;;
41043;SDS011;51680;49.806;18.774;2023-09-19T07:49:46;7.30;;;2.47;;
41043;SDS011;51680;49.806;18.774;2023-09-19T07:52:49;7.97;;;2.30;;
41043;SDS011;51680;49.806;18.774;2023-09-19T07:56:01;7.90;;;2.40;;
41043;SDS011;51680;49.806;18.774;2023-09-19T07:59:04;6.28;;;2.38;;
41043;SDS011;51680;49.806;18.774;2023-09-19T08:02:05;5.82;;;2.00;;
41043;SDS011;51680;49.806;18.774;2023-09-19T08:05:10;7.72;;;1.98;;
41043;SDS011;51680;49.806;18.774;2023-09-19T08:08:15;7.50;;;1.77;;
41043;SDS011;51680;49.806;18.774;2023-09-19T08:11:18;6.95;;;1.70;;
41043;SDS011;51680;49.806;18.774;2023-09-19T08:14:21;3.65;;;1.77;;
41043;SDS011;51680;49.806;18.774;2023-09-19T08:17:25;5.70;;;2.03;;
41043;SDS011;51680;49.806;18.774;2023-09-19T08:20:26;3.80;;;1.80;;
41043;SDS011;51680;49.806;18.774;2023-09-19T08:23:28;4.38;;;2.10;;
41043;SDS011;51680;49.806;18.774;2023-09-19T08:26:34;4.28;;;1.88;;
41043;SDS011;51680;49.806;18.774;2023-09-19T08:29:38;5.93;;;1.92;;
41043;SDS011;51680;49.806;18.774;2023-09-19T08:32:39;3.47;;;1.92;;
41043;SDS011;51680;49.806;18.774;2023-09-19T08:35:42;3.25;;;1.92;;
41043;SDS011;51680;49.806;18.774;2023-09-19T08:38:45;13.63;;;2.15;;
41043;SDS011;51680;49.806;18.774;2023-09-19T08:41:48;4.65;;;2.20;;
41043;SDS011;51680;49.806;18.774;2023-09-19T08:44:50;10.45;;;2.30;;
41043;SDS011;51680;49.806;18.774;2023-09-19T08:47:55;5.50;;;2.27;;
41043;SDS011;51680;49.806;18.774;2023-09-19T08:51:06;4.50;;;2.15;;
41043;SDS011;51680;49.806;18.774;2023-09-19T08:54:09;6.07;;;2.33;;
41043;SDS011;51680;49.806;18.774;2023-09-19T08:57:23;9.65;;;2.47;;
41043;SDS011;51680;49.806;18.774;2023-09-19T09:00:30;4.57;;;2.10;;
41043;SDS011;51680;49.806;18.774;2023-09-19T09:03:32;6.38;;;2.35;;
41043;SDS011;51680;49.806;18.774;2023-09-19T09:06:35;5.70;;;2.38;;
41043;SDS011;51680;49.806;18.774;2023-09-19T09:09:40;5.28;;;2.50;;
41043;SDS011;51680;49.806;18.774;2023-09-19T09:12:44;5.45;;;2.10;;
41043;SDS011;51680;49.806;18.774;2023-09-19T09:15:46;6.50;;;2.00;;
41043;SDS011;51680;49.806;18.774;2023-09-19T09:18:48;7.15;;;2.28;;
41043;SDS011;51680;49.806;18.774;2023-09-19T09:21:52;5.18;;;2.22;;
41043;SDS011;51680;49.806;18.774;2023-09-19T09:24:54;8.32;;;2.00;;
41043;SDS011;51680;49.806;18.774;2023-09-19T09:31:02;5.50;;;2.33;;
41043;SDS011;51680;49.806;18.774;2023-09-19T09:34:08;4.20;;;2.40;;
41043;SDS011;51680;49.806;18.774;2023-09-19T09:37:14;5.25;;;2.20;;
41043;SDS011;51680;49.806;18.774;2023-09-19T09:43:35;6.93;;;2.08;;
41043;SDS011;51680;49.806;18.774;2023-09-19T09:46:38;7.80;;;2.08;;
41043;SDS011;51680;49.806;18.774;2023-09-19T09:49:59;3.42;;;1.95;;
41043;SDS011;51680;49.806;18.774;2023-09-19T09:53:19;5.47;;;1.90;;
41043;SDS011;51680;49.806;18.774;2023-09-19T09:56:21;7.53;;;2.13;;
41043;SDS011;51680;49.806;18.774;2023-09-19T09:59:24;6.22;;;2.20;;
41043;SDS011;51680;49.806;18.774;2023-09-19T10:02:47;6.20;;;2.30;;
41043;SDS011;51680;49.806;18.774;2023-09-19T10:05:52;3.47;;;1.90;;
41043;SDS011;51680;49.806;18.774;2023-09-19T10:08:59;7.32;;;2.20;;
41043;SDS011;51680;49.806;18.774;2023-09-19T10:12:11;3.17;;;1.60;;
41043;SDS011;51680;49.806;18.774;2023-09-19T10:15:18;4.38;;;1.80;;
41043;SDS011;51680;49.806;18.774;2023-09-19T10:18:22;3.80;;;2.35;;
41043;SDS011;51680;49.806;18.774;2023-09-19T10:21:25;3.45;;;2.05;;
41043;SDS011;51680;49.806;18.774;2023-09-19T10:24:30;4.55;;;2.13;;
41043;SDS011;51680;49.806;18.774;2023-09-19T10:27:34;7.60;;;1.90;;
41043;SDS011;51680;49.806;18.774;2023-09-19T10:30:40;5.35;;;1.70;;
41043;SDS011;51680;49.806;18.774;2023-09-19T10:33:45;4.28;;;1.88;;
41043;SDS011;51680;49.806;18.774;2023-09-19T10:36:49;5.82;;;1.85;;
41043;SDS011;51680;49.806;18.774;2023-09-19T10:39:52;6.18;;;2.20;;
41043;SDS011;51680;49.806;18.774;2023-09-19T10:43:01;7.57;;;2.33;;
41043;SDS011;51680;49.806;18.774;2023-09-19T10:46:07;6.05;;;1.95;;
41043;SDS011;51680;49.806;18.774;2023-09-19T10:49:11;10.32;;;2.20;;
41043;SDS011;51680;49.806;18.774;2023-09-19T10:52:15;5.07;;;2.00;;
41043;SDS011;51680;49.806;18.774;2023-09-19T10:55:19;5.97;;;1.80;;
41043;SDS011;51680;49.806;18.774;2023-09-19T10:58:24;8.20;;;2.33;;
41043;SDS011;51680;49.806;18.774;2023-09-19T11:01:41;6.35;;;1.88;;
41043;SDS011;51680;49.806;18.774;2023-09-19T11:04:47;5.53;;;1.80;;
41043;SDS011;51680;49.806;18.774;2023-09-19T11:07:56;7.13;;;1.95;;
41043;SDS011;51680;49.806;18.774;2023-09-19T11:10:59;3.58;;;1.80;;
41043;SDS011;51680;49.806;18.774;2023-09-19T11:14:14;7.13;;;1.90;;
41043;SDS011;51680;49.806;18.774;2023-09-19T11:20:46;7.43;;;2.17;;
41043;SDS011;51680;49.806;18.774;2023-09-19T11:30:48;4.30;;;1.70;;
41043;SDS011;51680;49.806;18.774;2023-09-19T11:34:03;4.15;;;1.67;;
41043;SDS011;51680;49.806;18.774;2023-09-19T11:37:59;4.82;;;1.80;;
41043;SDS011;51680;49.806;18.774;2023-09-19T11:44:38;3.90;;;1.77;;
41043;SDS011;51680;49.806;18.774;2023-09-19T11:47:41;3.47;;;1.50;;
41043;SDS011;51680;49.806;18.774;2023-09-19T11:50:45;2.63;;;1.63;;
41043;SDS011;51680;49.806;18.774;2023-09-19T11:53:48;2.83;;;1.70;;
41043;SDS011;51680;49.806;18.774;2023-09-19T11:56:51;3.63;;;1.52;;
41043;SDS011;51680;49.806;18.774;2023-09-19T11:59:54;4.72;;;1.90;;
41043;SDS011;51680;49.806;18.774;2023-09-19T12:02:58;4.13;;;1.60;;
41043;SDS011;51680;49.806;18.774;2023-09-19T12:06:12;3.40;;;1.80;;
41043;SDS011;51680;49.806;18.774;2023-09-19T12:09:15;4.45;;;1.48;;
41043;SDS011;51680;49.806;18.774;2023-09-19T12:12:19;3.28;;;1.95;;
41043;SDS011;51680;49.806;18.774;2023-09-19T12:18:29;4.40;;;1.35;;
41043;SDS011;51680;49.806;18.774;2023-09-19T12:21:33;6.05;;;1.42;;
41043;SDS011;51680;49.806;18.774;2023-09-19T12:24:36;4.55;;;1.67;;
41043;SDS011;51680;49.806;18.774;2023-09-19T12:28:01;4.13;;;1.60;;
41043;SDS011;51680;49.806;18.774;2023-09-19T12:31:06;2.95;;;1.27;;
41043;SDS011;51680;49.806;18.774;2023-09-19T12:34:08;4.95;;;1.70;;
41043;SDS011;51680;49.806;18.774;2023-09-19T12:37:13;5.20;;;1.90;;
41043;SDS011;51680;49.806;18.774;2023-09-19T12:40:22;4.07;;;1.77;;
41043;SDS011;51680;49.806;18.774;2023-09-19T12:43:28;6.50;;;1.55;;
41043;SDS011;51680;49.806;18.774;2023-09-19T12:46:32;6.05;;;1.42;;
41043;SDS011;51680;49.806;18.774;2023-09-19T12:49:34;3.03;;;1.55;;
41043;SDS011;51680;49.806;18.774;2023-09-19T12:52:37;3.60;;;1.52;;
41043;SDS011;51680;49.806;18.774;2023-09-19T12:58:49;2.58;;;1.50;;
41043;SDS011;51680;49.806;18.774;2023-09-19T13:02:02;3.78;;;1.65;;
41043;SDS011;51680;49.806;18.774;2023-09-19T13:05:06;3.80;;;1.67;;
41043;SDS011;51680;49.806;18.774;2023-09-19T13:08:18;4.85;;;1.50;;
41043;SDS011;51680;49.806;18.774;2023-09-19T13:11:22;4.32;;;1.38;;
41043;SDS011;51680;49.806;18.774;2023-09-19T13:14:25;4.85;;;1.40;;
41043;SDS011;51680;49.806;18.774;2023-09-19T13:17:42;4.82;;;1.40;;
41043;SDS011;51680;49.806;18.774;2023-09-19T13:20:55;3.97;;;1.30;;
41043;SDS011;51680;49.806;18.774;2023-09-19T13:24:20;6.80;;;1.60;;
41043;SDS011;51680;49.806;18.774;2023-09-19T13:27:28;4.13;;;1.60;;
41043;SDS011;51680;49.806;18.774;2023-09-19T13:30:29;4.00;;;1.50;;
41043;SDS011;51680;49.806;18.774;2023-09-19T13:33:33;6.78;;;1.40;;
41043;SDS011;51680;49.806;18.774;2023-09-19T13:36:35;5.75;;;1.50;;
41043;SDS011;51680;49.806;18.774;2023-09-19T13:39:39;3.03;;;1.48;;
41043;SDS011;51680;49.806;18.774;2023-09-19T13:42:43;5.20;;;1.60;;
41043;SDS011;51680;49.806;18.774;2023-09-19T13:45:44;4.82;;;1.52;;
41043;SDS011;51680;49.806;18.774;2023-09-19T13:48:46;6.60;;;1.70;;
41043;SDS011;51680;49.806;18.774;2023-09-19T13:51:50;6.15;;;1.58;;
41043;SDS011;51680;49.806;18.774;2023-09-19T13:54:53;6.88;;;1.50;;
41043;SDS011;51680;49.806;18.774;2023-09-19T13:57:56;4.63;;;1.60;;
41043;SDS011;51680;49.806;18.774;2023-09-19T14:00:58;4.90;;;1.85;;
41043;SDS011;51680;49.806;18.774;2023-09-19T14:04:00;6.43;;;1.67;;
41043;SDS011;51680;49.806;18.774;2023-09-19T14:07:02;7.72;;;1.52;;
41043;SDS011;51680;49.806;18.774;2023-09-19T14:10:06;7.68;;;1.95;;
41043;SDS011;51680;49.806;18.774;2023-09-19T14:13:08;3.58;;;1.60;;
41043;SDS011;51680;49.806;18.774;2023-09-19T14:16:11;5.28;;;1.58;;
41043;SDS011;51680;49.806;18.774;2023-09-19T14:19:12;4.88;;;1.70;;
41043;SDS011;51680;49.806;18.774;2023-09-19T14:22:16;5.22;;;1.60;;
41043;SDS011;51680;49.806;18.774;2023-09-19T14:25:19;6.32;;;1.75;;
41043;SDS011;51680;49.806;18.774;2023-09-19T14:28:21;3.35;;;1.90;;
41043;SDS011;51680;49.806;18.774;2023-09-19T14:31:25;9.68;;;2.17;;
41043;SDS011;51680;49.806;18.774;2023-09-19T14:34:28;7.53;;;1.92;;
41043;SDS011;51680;49.806;18.774;2023-09-19T14:37:29;3.88;;;1.60;;
41043;SDS011;51680;49.806;18.774;2023-09-19T14:40:32;4.30;;;1.60;;
41043;SDS011;51680;49.806;18.774;2023-09-19T14:43:37;8.60;;;1.88;;
41043;SDS011;51680;49.806;18.774;2023-09-19T14:46:39;4.57;;;1.70;;
41043;SDS011;51680;49.806;18.774;2023-09-19T14:49:40;3.50;;;1.73;;
41043;SDS011;51680;49.806;18.774;2023-09-19T14:52:42;5.00;;;1.50;;
41043;SDS011;51680;49.806;18.774;2023-09-19T14:55:45;4.93;;;1.60;;
41043;SDS011;51680;49.806;18.774;2023-09-19T14:58:48;4.78;;;1.85;;
41043;SDS011;51680;49.806;18.774;2023-09-19T15:01:49;3.55;;;1.67;;
41043;SDS011;51680;49.806;18.774;2023-09-19T15:04:51;3.40;;;1.90;;
41043;SDS011;51680;49.806;18.774;2023-09-19T15:07:53;6.20;;;1.75;;
41043;SDS011;51680;49.806;18.774;2023-09-19T15:10:57;9.70;;;1.80;;
41043;SDS011;51680;49.806;18.774;2023-09-19T15:14:03;4.72;;;1.83;;
41043;SDS011;51680;49.806;18.774;2023-09-19T15:17:05;7.13;;;2.30;;
41043;SDS011;51680;49.806;18.774;2023-09-19T15:20:07;4.60;;;2.10;;
41043;SDS011;51680;49.806;18.774;2023-09-19T15:23:09;5.07;;;1.92;;
41043;SDS011;51680;49.806;18.774;2023-09-19T15:26:14;3.88;;;2.20;;
41043;SDS011;51680;49.806;18.774;2023-09-19T15:29:20;5.45;;;1.98;;
41043;SDS011;51680;49.806;18.774;2023-09-19T15:32:22;4.78;;;1.90;;
41043;SDS011;51680;49.806;18.774;2023-09-19T15:35:24;3.80;;;2.10;;
41043;SDS011;51680;49.806;18.774;2023-09-19T15:38:26;5.40;;;2.40;;
41043;SDS011;51680;49.806;18.774;2023-09-19T15:41:30;5.30;;;2.53;;
41043;SDS011;51680;49.806;18.774;2023-09-19T15:44:33;3.83;;;1.80;;
41043;SDS011;51680;49.806;18.774;2023-09-19T15:47:34;7.85;;;2.20;;
41043;SDS011;51680;49.806;18.774;2023-09-19T15:50:38;5.83;;;1.80;;
41043;SDS011;51680;49.806;18.774;2023-09-19T15:56:46;9.60;;;1.85;;
41043;SDS011;51680;49.806;18.774;2023-09-19T15:59:49;7.63;;;2.10;;
41043;SDS011;51680;49.806;18.774;2023-09-19T16:02:50;5.53;;;1.70;;
41043;SDS011;51680;49.806;18.774;2023-09-19T16:05:53;7.70;;;1.90;;
41043;SDS011;51680;49.806;18.774;2023-09-19T16:08:55;4.35;;;1.52;;
41043;SDS011;51680;49.806;18.774;2023-09-19T16:11:59;3.55;;;1.80;;
41043;SDS011;51680;49.806;18.774;2023-09-19T16:15:20;4.55;;;1.60;;
41043;SDS011;51680;49.806;18.774;2023-09-19T16:18:22;2.60;;;1.50;;
41043;SDS011;51680;49.806;18.774;2023-09-19T16:21:24;4.38;;;1.40;;
41043;SDS011;51680;49.806;18.774;2023-09-19T16:24:27;3.17;;;1.48;;
41043;SDS011;51680;49.806;18.774;2023-09-19T16:27:30;3.38;;;1.52;;
41043;SDS011;51680;49.806;18.774;2023-09-19T16:30:32;5.85;;;1.73;;
41043;SDS011;51680;49.806;18.774;2023-09-19T16:33:34;4.35;;;1.80;;
41043;SDS011;51680;49.806;18.774;2023-09-19T16:36:37;5.93;;;1.73;;
41043;SDS011;51680;49.806;18.774;2023-09-19T16:39:39;5.07;;;1.98;;
41043;SDS011;51680;49.806;18.774;2023-09-19T16:42:43;6.38;;;1.98;;
41043;SDS011;51680;49.806;18.774;2023-09-19T16:45:51;5.10;;;2.10;;
41043;SDS011;51680;49.806;18.774;2023-09-19T16:48:53;7.65;;;2.10;;
41043;SDS011;51680;49.806;18.774;2023-09-19T16:51:55;9.73;;;2.13;;
41043;SDS011;51680;49.806;18.774;2023-09-19T16:54:57;5.20;;;1.95;;
41043;SDS011;51680;49.806;18.774;2023-09-19T16:58:00;7.00;;;1.88;;
41043;SDS011;51680;49.806;18.774;2023-09-19T17:01:02;5.13;;;1.42;;
41043;SDS011;51680;49.806;18.774;2023-09-19T17:04:04;5.93;;;1.80;;
41043;SDS011;51680;49.806;18.774;2023-09-19T17:07:08;4.00;;;1.50;;
41043;SDS011;51680;49.806;18.774;2023-09-19T17:10:10;6.13;;;1.50;;
41043;SDS011;51680;49.806;18.774;2023-09-19T17:13:13;3.53;;;1.58;;
41043;SDS011;51680;49.806;18.774;2023-09-19T17:16:15;5.57;;;1.67;;
41043;SDS011;51680;49.806;18.774;2023-09-19T17:19:19;4.50;;;1.48;;
41043;SDS011;51680;49.806;18.774;2023-09-19T17:22:23;4.90;;;1.45;;
41043;SDS011;51680;49.806;18.774;2023-09-19T17:25:24;3.92;;;1.52;;
41043;SDS011;51680;49.806;18.774;2023-09-19T17:28:32;4.78;;;1.80;;
41043;SDS011;51680;49.806;18.774;2023-09-19T17:31:34;4.68;;;1.35;;
41043;SDS011;51680;49.806;18.774;2023-09-19T17:34:37;2.30;;;1.40;;
41043;SDS011;51680;49.806;18.774;2023-09-19T17:37:38;4.78;;;1.52;;
41043;SDS011;51680;49.806;18.774;2023-09-19T17:40:41;6.22;;;1.52;;
41043;SDS011;51680;49.806;18.774;2023-09-19T17:43:44;4.03;;;1.45;;
41043;SDS011;51680;49.806;18.774;2023-09-19T17:46:47;6.22;;;1.55;;
41043;SDS011;51680;49.806;18.774;2023-09-19T17:49:49;3.92;;;1.58;;
41043;SDS011;51680;49.806;18.774;2023-09-19T17:52:52;6.10;;;1.75;;
41043;SDS011;51680;49.806;18.774;2023-09-19T17:55:53;2.80;;;1.30;;
41043;SDS011;51680;49.806;18.774;2023-09-19T17:58:57;4.50;;;1.83;;
41043;SDS011;51680;49.806;18.774;2023-09-19T18:01:59;3.92;;;1.60;;
41043;SDS011;51680;49.806;18.774;2023-09-19T18:05:01;6.45;;;1.90;;
41043;SDS011;51680;49.806;18.774;2023-09-19T18:08:04;4.90;;;1.80;;
41043;SDS011;51680;49.806;18.774;2023-09-19T18:11:25;3.65;;;1.95;;
41043;SDS011;51680;49.806;18.774;2023-09-19T18:14:28;3.90;;;1.88;;
41043;SDS011;51680;49.806;18.774;2023-09-19T18:17:32;5.07;;;1.92;;
41043;SDS011;51680;49.806;18.774;2023-09-19T18:20:36;3.65;;;1.63;;
41043;SDS011;51680;49.806;18.774;2023-09-19T18:23:40;8.77;;;2.38;;
41043;SDS011;51680;49.806;18.774;2023-09-19T18:26:42;9.35;;;2.17;;
41043;SDS011;51680;49.806;18.774;2023-09-19T18:29:45;3.78;;;2.08;;
41043;SDS011;51680;49.806;18.774;2023-09-19T18:32:47;5.97;;;2.13;;
41043;SDS011;51680;49.806;18.774;2023-09-19T18:35:51;5.07;;;2.05;;
41043;SDS011;51680;49.806;18.774;2023-09-19T18:38:53;5.32;;;1.90;;
41043;SDS011;51680;49.806;18.774;2023-09-19T18:41:55;7.32;;;2.13;;
41043;SDS011;51680;49.806;18.774;2023-09-19T18:44:58;7.03;;;2.15;;
41043;SDS011;51680;49.806;18.774;2023-09-19T18:48:00;7.60;;;2.20;;
41043;SDS011;51680;49.806;18.774;2023-09-19T18:51:06;10.63;;;2.67;;